Time;durP1;ratioP1;P1;durP2;ratioP2;P2;SDS_P1;SDS_P2;PMS_P1;PMS_P2;Temp;Humidity;BMP_temperature;BMP_pressure;BME280_temperature;BME280_humidity;BME280_pressure;Samples;Min_cycle;Max_cycle;Signal;HPM_P1;HPM_P2
2022/06/01 00:01:50;;;;;;;3.72;1.98;;;12.50;99.90;;;;;;4954148;28;20205;-86
2022/06/01 00:04:18;;;;;;;5.40;2.25;;;12.50;99.90;;;;;;4946131;28;20192;-86
2022/06/01 00:06:44;;;;;;;5.55;2.50;;;12.50;99.90;;;;;;4951707;28;20197;-82
2022/06/01 00:09:10;;;;;;;5.30;2.40;;;12.40;99.90;;;;;;4965069;28;20456;-88
2022/06/01 00:11:36;;;;;;;5.28;2.22;;;12.40;99.90;;;;;;4955087;28;20180;-85
2022/06/01 00:14:02;;;;;;;2.30;2.10;;;;;;;;;;4953354;28;20597;-84
2022/06/01 00:16:28;;;;;;;3.05;2.20;;;;;;;;;;4948171;28;20220;-86
2022/06/01 00:18:56;;;;;;;5.18;2.38;;;12.30;99.90;;;;;;4953300;28;20187;-88
2022/06/01 00:21:22;;;;;;;2.90;2.60;;;;;;;;;;4952936;28;20208;-85
2022/06/01 00:24:22;;;;;;;5.63;2.63;;;12.30;99.90;;;;;;4965926;28;20201;-84
2022/06/01 00:26:57;;;;;;;3.45;2.78;;;12.10;99.90;;;;;;4939909;28;20212;-86
2022/06/01 00:29:23;;;;;;;3.10;2.33;;;;;;;;;;4944072;28;20187;-88
2022/06/01 00:31:51;;;;;;;5.90;2.42;;;;;;;;;;4951059;28;20188;-86
2022/06/01 00:34:22;;;;;;;2.78;2.58;;;11.60;99.90;;;;;;4954281;28;20188;-87
2022/06/01 00:36:51;;;;;;;3.13;2.60;;;;;;;;;;4948999;28;20215;-86
2022/06/01 00:39:17;;;;;;;3.85;2.47;;;;;;;;;;4950251;28;20269;-85
2022/06/01 00:41:43;;;;;;;3.58;2.33;;;;;;;;;;4952438;28;20208;-88
2022/06/01 00:44:09;;;;;;;4.23;2.80;;;;;;;;;;4949325;28;20196;-88
2022/06/01 00:46:35;;;;;;;4.00;2.40;;;;;;;;;;4951059;28;20466;-88
2022/06/01 00:49:15;;;;;;;5.73;2.93;;;11.00;99.90;;;;;;4950343;28;20468;-86
2022/06/01 00:51:42;;;;;;;3.60;2.60;;;11.00;99.90;;;;;;4955461;28;20503;-89
2022/06/01 00:54:08;;;;;;;4.28;2.40;;;10.90;99.90;;;;;;4955997;28;20917;-88
2022/06/01 00:56:39;;;;;;;3.30;2.42;;;11.00;99.90;;;;;;4952332;28;20209;-87
2022/06/01 00:59:09;;;;;;;3.13;2.05;;;11.10;99.90;;;;;;4952229;28;20192;-88
2022/06/01 01:01:38;;;;;;;6.00;2.40;;;10.80;99.90;;;;;;4943036;28;20672;-88
2022/06/01 01:04:04;;;;;;;2.60;2.30;;;11.20;99.90;;;;;;4953559;28;20181;-86
2022/06/01 01:06:35;;;;;;;3.20;2.30;;;11.20;99.90;;;;;;4956710;28;20228;-87
2022/06/01 01:09:02;;;;;;;3.05;2.45;;;11.10;99.90;;;;;;4949608;28;20195;-88
2022/06/01 01:11:47;;;;;;;4.93;2.97;;;11.20;99.90;;;;;;4954820;28;20177;-88
2022/06/01 01:14:16;;;;;;;3.13;2.83;;;11.10;99.90;;;;;;4951152;28;20281;-86
2022/06/01 01:16:41;;;;;;;4.72;2.83;;;10.90;99.90;;;;;;4951027;28;20289;-89
2022/06/01 01:19:22;;;;;;;4.80;2.40;;;10.80;99.90;;;;;;4952559;28;20208;-88
2022/06/01 01:22:00;;;;;;;7.80;2.70;;;10.70;99.90;;;;;;4952891;28;20460;-90
2022/06/01 01:24:43;;;;;;;5.38;3.33;;;13.10;99.90;;;;;;4965397;28;20336;-89
2022/06/01 01:27:09;;;;;;;2.20;2.00;;;10.60;99.90;;;;;;4948546;28;20208;-86
2022/06/01 01:29:38;;;;;;;3.63;2.47;;;10.60;99.90;;;;;;4949742;28;20200;-86
2022/06/01 01:32:05;;;;;;;3.38;2.00;;;10.30;99.90;;;;;;4964016;28;20542;-88
2022/06/01 01:34:32;;;;;;;4.68;2.67;;;10.70;99.90;;;;;;4949601;28;20642;-87
2022/06/01 01:37:02;;;;;;;3.95;2.35;;;10.70;99.90;;;;;;4949116;28;20235;-85
2022/06/01 01:39:30;;;;;;;2.75;1.92;;;10.70;99.90;;;;;;4948434;28;20180;-87
2022/06/01 01:41:56;;;;;;;4.13;2.00;;;;;;;;;;4953225;28;20249;-86
2022/06/01 01:44:31;;;;;;;3.07;2.50;;;10.80;99.90;;;;;;4948794;28;20223;-86
2022/06/01 01:46:57;;;;;;;3.35;2.20;;;10.80;99.90;;;;;;4947258;28;20868;-87
2022/06/01 01:49:25;;;;;;;4.40;3.10;;;10.80;99.90;;;;;;4951636;28;20240;-89
2022/06/01 01:51:58;;;;;;;6.63;2.28;;;10.80;99.90;;;;;;4950093;28;20192;-87
2022/06/01 01:54:52;;;;;;;2.65;2.45;;;10.80;99.90;;;;;;4952959;28;20231;-87
2022/06/01 01:57:29;;;;;;;3.83;2.38;;;10.80;99.90;;;;;;4947781;28;20210;-86
2022/06/01 02:00:36;;;;;;;6.18;2.50;;;10.70;99.90;;;;;;4949925;28;20202;-89
2022/06/01 02:03:24;;;;;;;2.85;2.20;;;10.70;99.90;;;;;;4952770;28;20191;-87
2022/06/01 02:06:04;;;;;;;4.88;2.75;;;10.80;99.90;;;;;;4966034;28;20196;-87
2022/06/01 02:08:47;;;;;;;3.63;2.47;;;10.80;99.90;;;;;;4959822;28;20645;-89
2022/06/01 02:14:14;;;;;;;7.20;2.40;;;10.90;99.90;;;;;;4954768;28;20191;-89
2022/06/01 02:16:46;;;;;;;3.78;3.03;;;10.90;99.90;;;;;;4945403;28;20300;-88
2022/06/01 02:19:18;;;;;;;7.38;2.63;;;11.00;99.90;;;;;;4954308;28;20248;-88
2022/06/01 02:21:43;;;;;;;3.72;2.63;;;11.00;99.90;;;;;;4961994;28;20201;-86
2022/06/01 02:24:09;;;;;;;4.67;2.77;;;10.90;99.90;;;;;;4957878;28;20192;-88
2022/06/01 02:26:36;;;;;;;3.33;3.03;;;10.90;99.90;;;;;;4949098;28;20697;-87
2022/06/01 02:29:17;;;;;;;3.35;2.50;;;10.50;99.90;;;;;;4954668;28;20189;-89
2022/06/01 02:31:44;;;;;;;2.45;2.25;;;11.00;99.90;;;;;;4947894;28;20185;-88
2022/06/01 02:34:11;;;;;;;13.90;2.80;;;11.00;99.90;;;;;;4955139;28;20185;-90
2022/06/01 02:36:39;;;;;;;4.22;3.00;;;11.10;99.90;;;;;;4948594;28;20207;-88
2022/06/01 02:39:07;;;;;;;7.70;3.08;;;11.00;99.90;;;;;;4956319;28;20234;-87
2022/06/01 02:44:18;;;;;;;8.43;3.10;;;11.10;99.90;;;;;;4953012;28;20267;-87
2022/06/01 02:46:45;;;;;;;4.27;3.03;;;10.80;99.90;;;;;;4947063;28;20231;-87
2022/06/01 02:49:11;;;;;;;5.53;3.05;;;;;;;;;;4946901;28;20468;-85
2022/06/01 02:51:37;;;;;;;4.10;3.30;;;;;;;;;;4953532;28;20184;-89
2022/06/01 02:54:02;;;;;;;4.27;2.80;;;10.50;99.90;;;;;;4946736;28;21020;-88
2022/06/01 02:56:28;;;;;;;4.87;3.30;;;;;;;;;;4943852;28;20482;-87
2022/06/01 02:58:54;;;;;;;5.73;3.40;;;10.30;99.90;;;;;;4945085;28;20189;-86
2022/06/01 03:01:20;;;;;;;7.25;3.00;;;10.20;99.90;;;;;;4942088;28;20463;-88
2022/06/01 03:03:47;;;;;;;3.38;3.08;;;10.30;99.90;;;;;;4941125;28;20271;-89
2022/06/01 03:06:13;;;;;;;4.55;3.25;;;10.10;99.90;;;;;;4953372;28;21749;-86
2022/06/01 03:08:39;;;;;;;4.45;3.97;;;10.10;99.90;;;;;;4965492;28;20191;-86
2022/06/01 03:11:05;;;;;;;7.50;3.13;;;;;;;;;;4950239;28;20192;-89
2022/06/01 03:13:30;;;;;;;3.70;3.10;;;10.20;99.90;;;;;;4946416;28;20204;-89
2022/06/01 03:15:56;;;;;;;5.20;3.03;;;;;;;;;;4950639;28;20546;-84
2022/06/01 03:18:22;;;;;;;5.45;3.53;;;;;;;;;;4954113;28;20215;-87
2022/06/01 03:20:49;;;;;;;3.95;2.90;;;;;;;;;;4955400;28;20213;-86
2022/06/01 03:23:15;;;;;;;6.65;3.10;;;9.80;99.90;;;;;;4955046;28;20239;-86
2022/06/01 03:25:42;;;;;;;4.43;3.42;;;;;;;;;;4953137;28;20558;-87
2022/06/01 03:28:08;;;;;;;5.20;3.47;;;9.60;99.90;;;;;;4958481;28;20200;-87
2022/06/01 03:30:33;;;;;;;4.88;3.35;;;9.60;99.90;;;;;;4952107;28;20185;-87
2022/06/01 03:33:00;;;;;;;4.77;2.90;;;;;;;;;;4953486;28;20264;-86
2022/06/01 03:35:31;;;;;;;3.47;3.10;;;9.60;99.90;;;;;;4952471;28;20188;-86
2022/06/01 03:37:57;;;;;;;3.70;2.78;;;;;;;;;;4956514;28;20272;-87
2022/06/01 03:40:25;;;;;;;4.35;3.05;;;9.30;99.90;;;;;;4952825;28;20231;-89
2022/06/01 03:42:51;;;;;;;4.05;3.08;;;;;;;;;;4981188;28;20228;-88
2022/06/01 03:48:01;;;;;;;4.60;3.28;;;10.10;99.90;;;;;;4954627;28;20471;-87
2022/06/01 03:50:28;;;;;;;4.30;3.37;;;9.10;99.90;;;;;;4957569;28;20189;-88
2022/06/01 03:52:56;;;;;;;5.00;3.40;;;9.10;99.90;;;;;;4953146;28;20441;-86
2022/06/01 03:55:22;;;;;;;5.97;3.58;;;9.70;99.90;;;;;;4954769;28;20300;-87
2022/06/01 03:57:48;;;;;;;13.02;3.60;;;9.60;99.90;;;;;;4949698;28;20227;-87
2022/06/01 04:00:20;;;;;;;5.37;3.20;;;9.60;99.90;;;;;;4958714;28;20176;-87
2022/06/01 04:02:46;;;;;;;3.70;2.58;;;9.80;99.90;;;;;;4975811;28;20197;-89
2022/06/01 04:05:12;;;;;;;4.43;3.80;;;;;;;;;;4970103;28;20739;-90
2022/06/01 04:07:38;;;;;;;4.90;4.10;;;10.20;99.90;;;;;;4949205;28;20220;-88
2022/06/01 04:10:04;;;;;;;6.90;4.50;;;10.20;99.90;;;;;;4952183;28;20288;-90
2022/06/01 04:12:30;;;;;;;5.80;4.90;;;10.10;99.90;;;;;;4950178;28;20193;-88
2022/06/01 04:14:55;;;;;;;12.07;4.83;;;10.10;99.90;;;;;;4952396;28;20185;-88
2022/06/01 04:17:21;;;;;;;7.90;4.40;;;;;;;;;;4948838;28;20204;-88
2022/06/01 04:19:47;;;;;;;4.10;3.70;;;;;;;;;;4951065;28;20256;-87
2022/06/01 04:22:14;;;;;;;4.40;3.50;;;13.70;99.90;;;;;;4944137;28;20463;-89
2022/06/01 04:24:42;;;;;;;4.05;2.90;;;15.50;99.90;;;;;;4948975;28;20436;-88
2022/06/01 04:27:08;;;;;;;6.63;4.45;;;17.00;99.90;;;;;;4946186;28;20323;-91
2022/06/01 04:29:34;;;;;;;4.07;3.50;;;17.30;99.90;;;;;;4941861;28;20720;-88
2022/06/01 04:32:09;;;;;;;6.00;4.53;;;17.60;99.90;;;;;;4944292;28;20455;-88
2022/06/01 04:34:34;;;;;;;5.17;3.93;;;17.90;99.90;;;;;;4949353;28;20194;-88
2022/06/01 04:37:02;;;;;;;7.30;3.47;;;18.30;99.90;;;;;;4945696;28;20464;-89
2022/06/01 04:39:28;;;;;;;4.87;3.20;;;;;;;;;;4941134;28;20708;-87
2022/06/01 04:41:54;;;;;;;4.10;3.70;;;;;;;;;;4944030;28;20547;-89
2022/06/01 04:44:20;;;;;;;20.37;4.80;;;;;;;;;;4945081;28;20439;-88
2022/06/01 04:46:46;;;;;;;5.83;3.20;;;22.30;99.90;;;;;;4936539;28;20510;-87
2022/06/01 04:49:12;;;;;;;5.13;3.23;;;;;;;;;;4947382;28;20452;-90
2022/06/01 04:51:38;;;;;;;6.40;4.20;;;;;;;;;;4944183;28;20243;-88
2022/06/01 04:54:07;;;;;;;4.93;3.87;;;27.50;86.70;;;;;;4946169;28;20443;-88
2022/06/01 04:56:33;;;;;;;5.40;3.80;;;;;;;;;;4949759;28;20552;-86
2022/06/01 04:58:59;;;;;;;5.17;3.60;;;;;;;;;;4958565;28;20436;-86
2022/06/01 05:01:25;;;;;;;5.87;3.77;;;;;;;;;;4955371;28;20478;-87
2022/06/01 05:03:51;;;;;;;4.37;4.00;;;27.70;73.20;;;;;;4955100;28;20440;-88
2022/06/01 05:06:17;;;;;;;5.47;4.10;;;;;;;;;;4952162;28;20456;-90
2022/06/01 05:08:43;;;;;;;5.70;4.17;;;;;;;;;;4951866;28;20909;-87
2022/06/01 05:11:17;;;;;;;6.50;4.10;;;25.60;79.80;;;;;;4952047;28;20527;-89
2022/06/01 05:13:43;;;;;;;3.83;3.37;;;;;;;;;;4969775;28;20811;-88
2022/06/01 05:16:09;;;;;;;3.53;3.23;;;27.40;70.80;;;;;;4951620;28;20444;-88
2022/06/01 05:18:35;;;;;;;7.77;3.80;;;;;;;;;;4964582;28;20435;-86
2022/06/01 05:21:01;;;;;;;5.40;4.07;;;;;;;;;;4957827;28;20457;-88
2022/06/01 05:23:27;;;;;;;6.33;3.80;;;;;;;;;;4947303;28;20465;-89
2022/06/01 05:25:54;;;;;;;4.67;3.97;;;29.20;64.90;;;;;;4950064;28;20490;-88
2022/06/01 05:28:23;;;;;;;4.27;3.30;;;27.50;67.20;;;;;;4951152;28;20457;-85
2022/06/01 05:30:49;;;;;;;8.63;4.10;;;;;;;;;;4964788;28;20449;-85
2022/06/01 05:33:15;;;;;;;4.40;3.10;;;;;;;;;;4947152;29;20454;-86
2022/06/01 05:35:41;;;;;;;6.13;4.60;;;;;;;;;;4945046;28;20437;-88
2022/06/01 05:38:07;;;;;;;4.67;3.90;;;;;;;;;;4944118;28;20476;-87
2022/06/01 05:40:33;;;;;;;4.83;3.63;;;;;;;;;;4945664;28;20445;-89
2022/06/01 05:43:13;;;;;;;5.73;3.87;;;26.40;71.40;;;;;;4947399;28;20433;-87
2022/06/01 05:45:39;;;;;;;5.50;4.37;;;29.60;65.10;;;;;;4944099;28;20462;-87
2022/06/01 05:48:08;;;;;;;5.20;4.20;;;27.50;62.40;;;;;;4934220;28;20474;-85
2022/06/01 05:50:34;;;;;;;7.57;4.40;;;;;;;;;;4957593;28;20446;-88
2022/06/01 05:53:00;;;;;;;7.67;4.23;;;;;;;;;;4946850;28;20444;-86
2022/06/01 05:55:26;;;;;;;4.20;3.80;;;;;;;;;;4949979;28;20446;-84
2022/06/01 05:57:52;;;;;;;6.30;4.40;;;;;;;;;;4968786;28;20471;-85
2022/06/01 06:00:18;;;;;;;7.13;5.03;;;;;;;;;;4954928;28;20487;-88
2022/06/01 06:02:44;;;;;;;5.10;4.07;;;;;;;;;;4950209;28;20483;-85
2022/06/01 06:07:56;;;;;;;5.30;3.70;;;30.50;60.00;;;;;;4942630;28;20472;-88
2022/06/01 06:10:22;;;;;;;4.83;4.40;;;;;;;;;;4933540;28;20531;-84
2022/06/01 06:12:48;;;;;;;10.00;4.30;;;;;;;;;;4946658;28;20443;-86
2022/06/01 06:15:15;;;;;;;8.73;4.10;;;;;;;;;;4958754;28;20440;-84
2022/06/01 06:17:41;;;;;;;5.80;4.23;;;;;;;;;;4944501;28;20458;-86
2022/06/01 06:20:08;;;;;;;5.27;4.40;;;30.30;60.60;;;;;;4944669;28;20436;-88
2022/06/01 06:22:34;;;;;;;4.03;3.60;;;;;;;;;;4951250;28;20988;-87
2022/06/01 06:25:00;;;;;;;8.30;3.50;;;;;;;;;;4945880;28;20442;-86
2022/06/01 06:27:27;;;;;;;3.10;2.80;;;;;;;;;;4942501;28;20458;-85
2022/06/01 06:29:53;;;;;;;5.30;3.43;;;;;;;;;;4942223;28;20474;-86
2022/06/01 06:32:19;;;;;;;12.30;5.93;;;;;;;;;;4942591;28;20441;-87
2022/06/01 06:34:45;;;;;;;6.83;6.03;;;;;;;;;;4946857;28;20444;-86
2022/06/01 06:37:11;;;;;;;11.43;5.20;;;;;;;;;;4960197;28;20478;-88
2022/06/01 06:39:37;;;;;;;17.00;4.70;;;;;;;;;;4945762;28;20442;-89
2022/06/01 06:42:05;;;;;;;6.83;4.20;;;28.20;57.40;;;;;;4940370;29;20525;-89
2022/06/01 06:44:35;;;;;;;4.63;4.23;;;29.50;58.00;;;;;;4951365;28;20437;-89
2022/06/01 06:47:01;;;;;;;6.10;4.43;;;;;;;;;;4947721;28;20539;-88
2022/06/01 06:49:27;;;;;;;11.17;3.53;;;;;;;;;;4942133;28;20552;-86
2022/06/01 06:51:52;;;;;;;4.27;3.77;;;;;;;;;;4949441;28;20440;-88
2022/06/01 06:54:18;;;;;;;4.57;3.63;;;;;;;;;;4949173;28;20492;-87
2022/06/01 06:56:45;;;;;;;4.73;3.33;;;;;;;;;;4950522;28;20455;-88
2022/06/01 06:59:12;;;;;;;9.33;3.47;;;;;;;;;;4949537;28;20448;-87
2022/06/01 07:01:38;;;;;;;8.70;3.33;;;;;;;;;;4948544;28;20817;-84
2022/06/01 07:04:05;;;;;;;6.63;6.03;;;;;;;;;;4948384;28;20882;-86
2022/06/01 07:06:31;;;;;;;7.93;7.53;;;;;;;;;;4950650;28;20970;-85
2022/06/01 07:08:57;;;;;;;8.83;8.33;;;;;;;;;;4950112;28;20459;-88
2022/06/01 07:11:25;;;;;;;10.90;10.20;;;40.00;38.60;;;;;;4949065;28;20475;-86
2022/06/01 07:13:51;;;;;;;11.40;10.90;;;;;;;;;;4949858;28;20510;-89
2022/06/01 07:16:24;;;;;;;11.70;11.10;;;37.00;50.20;;;;;;4948310;28;20416;-88
2022/06/01 07:18:52;;;;;;;11.10;10.50;;;34.20;39.10;;;;;;4959094;28;20442;-88
2022/06/01 07:21:18;;;;;;;10.73;9.87;;;35.80;38.10;;;;;;4950100;28;20461;-85
2022/06/01 07:23:45;;;;;;;10.87;10.00;;;35.90;39.40;;;;;;4952294;28;20434;-86
2022/06/01 07:26:15;;;;;;;10.47;9.87;;;37.50;37.50;;;;;;4951071;28;20442;-88
2022/06/01 07:28:41;;;;;;;10.50;10.00;;;;;;;;;;4951502;28;21402;-88
2022/06/01 07:31:07;;;;;;;11.20;10.53;;;;;;;;;;4963996;28;20478;-84
2022/06/01 07:33:35;;;;;;;11.30;10.50;;;37.40;36.40;;;;;;4956701;28;20441;-89
2022/06/01 07:36:03;;;;;;;11.27;10.50;;;37.80;37.10;;;;;;4954763;28;20423;-90
2022/06/01 07:44:08;;;;;;;11.30;10.70;;;35.20;51.60;;;;;;4954283;28;20617;-90
2022/06/01 07:46:37;;;;;;;12.00;11.00;;;34.00;37.50;;;;;;4963427;28;20446;-86
2022/06/01 07:49:07;;;;;;;11.43;10.67;;;32.30;40.30;;;;;;4960087;28;20436;-88
2022/06/01 07:51:33;;;;;;;10.53;9.77;;;;;;;;;;4948269;28;20437;-87
2022/06/01 07:53:59;;;;;;;9.87;8.97;;;;;;;;;;4968546;28;20437;-83
2022/06/01 07:56:25;;;;;;;9.43;8.70;;;;;;;;;;4967075;28;20951;-87
2022/06/01 07:58:51;;;;;;;9.47;8.97;;;;;;;;;;4953463;28;20484;-89
2022/06/01 08:01:21;;;;;;;9.30;8.50;;;;;;;;;;4955043;28;20469;-89
2022/06/01 08:03:47;;;;;;;7.37;6.97;;;;;;;;;;4952781;28;20437;-89
2022/06/01 08:06:14;;;;;;;7.03;6.43;;;;;;;;;;4954788;28;20851;-89
2022/06/01 08:08:40;;;;;;;9.43;2.63;;;;;;;;;;4953228;28;20438;-89
2022/06/01 08:11:06;;;;;;;3.27;2.60;;;;;;;;;;4953511;28;20948;-88
2022/06/01 08:13:32;;;;;;;4.50;3.03;;;;;;;;;;4952933;28;21221;-89
2022/06/01 08:15:58;;;;;;;7.50;3.00;;;;;;;;;;4954488;28;20421;-84
2022/06/01 08:18:24;;;;;;;2.80;2.33;;;28.00;48.10;;;;;;4953703;28;20461;-84
2022/06/01 08:20:52;;;;;;;5.37;2.20;;;27.30;48.80;;;;;;4953891;28;20997;-86
2022/06/01 08:23:18;;;;;;;4.03;2.70;;;;;;;;;;4968026;28;20939;-85
2022/06/01 08:25:45;;;;;;;2.63;2.43;;;;;;;;;;4952583;28;20472;-89
2022/06/01 08:28:11;;;;;;;2.77;2.47;;;;;;;;;;4952726;28;20453;-88
2022/06/01 08:30:39;;;;;;;5.53;2.70;;;28.50;50.20;;;;;;4953527;28;20424;-85
2022/06/01 08:33:05;;;;;;;4.80;3.23;;;27.90;48.90;;;;;;4952772;28;20811;-84
2022/06/01 08:35:36;;;;;;;5.03;3.40;;;27.60;50.00;;;;;;4953511;28;20439;-86
2022/06/01 08:38:02;;;;;;;5.80;3.73;;;;;;;;;;4952293;28;20446;-88
2022/06/01 08:40:32;;;;;;;3.37;3.00;;;27.30;50.70;;;;;;4952847;28;20416;-88
2022/06/01 08:43:05;;;;;;;8.07;3.00;;;27.50;53.00;;;;;;4966158;28;20497;-87
2022/06/01 08:45:31;;;;;;;4.77;2.77;;;;;;;;;;4951795;28;20484;-90
2022/06/01 08:47:57;;;;;;;9.00;3.53;;;;;;;;;;4966749;28;20451;-87
2022/06/01 08:50:32;;;;;;;4.17;2.60;;;27.10;54.00;;;;;;4955049;28;20435;-89
2022/06/01 08:53:01;;;;;;;4.73;2.40;;;28.10;51.00;;;;;;4953705;28;20772;-87
2022/06/01 08:55:35;;;;;;;4.37;2.53;;;27.60;51.70;;;;;;4953668;28;20836;-87
2022/06/01 08:58:13;;;;;;;7.77;3.30;;;27.60;52.20;;;;;;4953498;28;20518;-87
2022/06/01 09:01:10;;;;;;;3.37;3.00;;;26.10;54.40;;;;;;4945330;28;20952;-86
2022/06/01 09:04:12;;;;;;;4.23;3.10;;;27.50;57.10;;;;;;4929376;28;20498;-89
2022/06/01 09:06:49;;;;;;;6.03;3.10;;;30.40;52.80;;;;;;4895563;28;20477;-87
2022/06/01 09:09:31;;;;;;;8.70;2.97;;;29.10;52.70;;;;;;4937546;28;20459;-85
2022/06/01 09:11:57;;;;;;;4.07;3.10;;;;;;;;;;4960291;28;20437;-85
2022/06/01 09:14:29;;;;;;;6.97;3.90;;;28.60;52.90;;;;;;4942913;28;20434;-88
2022/06/01 09:16:56;;;;;;;4.10;2.67;;;29.30;51.90;;;;;;4937878;28;20462;-84
2022/06/01 09:19:26;;;;;;;4.83;3.07;;;30.40;52.70;;;;;;4937737;28;20518;-86
2022/06/01 09:24:56;;;;;;;2.83;2.10;;;;;;;;;;4941732;28;20485;-88
2022/06/01 09:27:35;;;;;;;2.33;2.07;;;31.10;45.00;;;;;;4955870;28;20454;-87
2022/06/01 09:30:18;;;;;;;4.50;2.30;;;30.70;46.60;;;;;;4955349;28;20443;-84
2022/06/01 09:33:01;;;;;;;4.33;2.80;;;29.10;48.00;;;;;;4950106;28;20435;-85
2022/06/01 09:35:46;;;;;;;5.13;2.63;;;27.50;48.50;;;;;;4943981;28;20477;-83
2022/06/01 09:38:34;;;;;;;2.53;2.20;;;27.70;52.40;;;;;;4958353;28;21075;-84
2022/06/01 09:41:05;;;;;;;5.80;2.83;;;28.50;59.10;;;;;;4948587;28;20481;-86
2022/06/01 09:43:31;;;;;;;3.20;2.23;;;;;;;;;;4952238;28;21044;-85
2022/06/01 09:45:57;;;;;;;2.80;2.10;;;;;;;;;;4949053;28;20436;-84
2022/06/01 09:48:24;;;;;;;5.50;2.40;;;;;;;;;;4942267;28;21533;-85
2022/06/01 09:50:58;;;;;;;4.33;2.50;;;27.90;47.20;;;;;;4960227;28;20437;-86
2022/06/01 09:53:33;;;;;;;5.90;2.70;;;29.70;52.60;;;;;;4964364;28;20462;-82
2022/06/01 09:56:01;;;;;;;4.90;2.47;;;27.00;47.00;;;;;;4955734;28;20438;-86
2022/06/01 10:07:07;;;;;;;2.13;1.93;;;;;;;;;;4952426;28;20544;-86
2022/06/01 10:09:34;;;;;;;2.23;2.03;;;26.40;53.80;;;;;;4948898;28;20461;-85
2022/06/01 10:12:31;;;;;;;2.43;1.93;;;27.40;49.90;;;;;;4949022;28;20446;-84
2022/06/01 10:14:58;;;;;;;3.33;1.90;;;;;;;;;;4961909;28;20446;-82
2022/06/01 10:17:32;;;;;;;4.33;2.50;;;27.00;49.70;;;;;;4952671;28;21013;-85
2022/06/01 10:20:13;;;;;;;2.83;1.60;;;26.10;51.90;;;;;;4947335;28;20510;-84
2022/06/01 10:22:45;;;;;;;2.73;1.70;;;24.40;46.60;;;;;;4963861;28;20841;-83
2022/06/01 10:25:14;;;;;;;4.60;2.17;;;24.40;47.10;;;;;;4950712;28;20439;-86
2022/06/01 10:28:09;;;;;;;4.10;1.47;;;24.20;48.40;;;;;;4947793;28;20566;-87
2022/06/01 10:30:43;;;;;;;3.60;1.50;;;23.60;49.30;;;;;;4958600;28;20419;-84
2022/06/01 10:33:27;;;;;;;3.00;1.40;;;24.40;46.90;;;;;;4950342;28;20547;-82
2022/06/01 10:36:00;;;;;;;2.40;1.37;;;24.10;47.80;;;;;;4943640;28;20450;-84
2022/06/01 10:38:41;;;;;;;3.70;2.00;;;23.30;48.00;;;;;;4943026;28;20475;-86
2022/06/01 10:41:14;;;;;;;1.50;1.40;;;22.90;48.80;;;;;;4946107;28;20519;-85
2022/06/01 10:43:54;;;;;;;4.80;1.40;;;23.20;50.60;;;;;;4947934;28;20440;-89
2022/06/01 10:46:23;;;;;;;3.37;1.50;;;23.00;48.90;;;;;;4955003;28;20502;-86
2022/06/01 10:49:18;;;;;;;2.37;1.70;;;23.10;50.70;;;;;;4947601;28;20463;-89
2022/06/01 10:51:54;;;;;;;4.83;2.30;;;22.50;48.30;;;;;;4940719;28;20448;-84
2022/06/01 10:54:28;;;;;;;2.00;1.60;;;22.60;49.20;;;;;;4950961;28;20439;-86
2022/06/01 10:56:55;;;;;;;11.70;3.23;;;22.80;49.10;;;;;;4946020;28;20546;-86
2022/06/01 10:59:21;;;;;;;3.53;1.93;;;;;;;;;;4946675;28;20490;-87
2022/06/01 11:02:28;;;;;;;2.03;1.73;;;23.20;49.20;;;;;;4941413;28;20939;-85
2022/06/01 11:05:19;;;;;;;3.37;1.87;;;23.30;48.60;;;;;;4872121;29;20489;-84
2022/06/01 11:08:00;;;;;;;1.63;1.50;;;22.80;47.70;;;;;;4940348;28;20471;-84
2022/06/01 11:10:55;;;;;;;3.97;1.60;;;23.10;49.20;;;;;;4941713;28;20463;-85
2022/06/01 11:13:36;;;;;;;3.60;1.43;;;23.70;50.80;;;;;;4935740;28;20488;-84
2022/06/01 11:16:11;;;;;;;3.97;1.90;;;24.00;49.30;;;;;;4948880;28;20454;-85
2022/06/01 11:18:56;;;;;;;2.80;1.57;;;23.70;49.20;;;;;;4948377;28;20447;-87
2022/06/01 11:21:40;;;;;;;4.37;1.70;;;23.40;48.10;;;;;;4945306;28;20487;-86
2022/06/01 11:24:06;;;;;;;1.70;1.50;;;;;;;;;;4950904;28;20459;-88
2022/06/01 11:26:31;;;;;;;3.10;1.80;;;;;;;;;;4943433;28;20459;-88
2022/06/01 11:29:29;;;;;;;3.27;1.87;;;23.60;49.10;;;;;;4941705;28;20449;-87
2022/06/01 11:31:59;;;;;;;3.17;1.60;;;22.50;50.60;;;;;;4936546;28;20531;-86
2022/06/01 11:34:32;;;;;;;5.33;2.17;;;22.70;51.10;;;;;;4942403;28;20459;-86
2022/06/01 11:37:04;;;;;;;1.53;1.30;;;22.70;51.50;;;;;;4937895;28;20506;-88
2022/06/01 11:39:50;;;;;;;3.20;2.00;;;22.80;52.00;;;;;;4943021;28;20436;-88
2022/06/01 11:42:28;;;;;;;2.60;2.00;;;23.30;51.90;;;;;;4943532;28;20468;-83
2022/06/01 11:45:12;;;;;;;2.10;1.90;;;23.20;52.00;;;;;;4943265;28;20466;-84
2022/06/01 11:47:53;;;;;;;2.30;1.53;;;23.60;51.90;;;;;;4942796;28;20459;-87
2022/06/01 11:50:25;;;;;;;2.03;1.60;;;23.70;50.80;;;;;;4943780;28;20440;-81
2022/06/01 11:53:12;;;;;;;3.40;2.10;;;23.10;50.50;;;;;;4957194;28;20512;-80
2022/06/01 11:55:38;;;;;;;2.90;1.80;;;;;;;;;;4947641;28;20464;-87
2022/06/01 11:58:11;;;;;;;3.23;1.87;;;22.90;52.80;;;;;;4942323;28;20523;-82
2022/06/01 12:00:51;;;;;;;3.77;1.60;;;22.90;53.20;;;;;;4944440;28;20444;-84
2022/06/01 12:03:19;;;;;;;1.97;1.47;;;23.10;52.10;;;;;;4960127;28;20454;-85
2022/06/01 12:06:35;;;;;;;1.77;1.60;;;23.50;53.40;;;;;;4939810;28;20471;-83
2022/06/01 12:09:03;;;;;;;2.50;1.60;;;23.20;51.30;;;;;;4940367;28;20448;-85
2022/06/01 12:11:40;;;;;;;2.43;1.80;;;22.90;50.30;;;;;;4942885;28;20450;-87
2022/06/01 12:14:27;;;;;;;5.30;1.80;;;23.50;49.60;;;;;;4938138;28;20483;-82
2022/06/01 12:17:18;;;;;;;6.53;2.20;;;23.40;49.90;;;;;;4940649;28;20482;-85
2022/06/01 12:19:47;;;;;;;4.40;2.13;;;23.80;51.10;;;;;;4940563;28;20475;-85
2022/06/01 12:28:52;;;;;;;4.67;1.40;;;23.20;50.40;;;;;;4941666;28;20527;-88
2022/06/01 12:31:21;;;;;;;3.73;2.00;;;23.40;51.80;;;;;;4927199;28;21263;-83
2022/06/01 12:34:16;;;;;;;2.60;1.80;;;23.40;52.50;;;;;;4943252;28;20569;-84
2022/06/01 12:37:04;;;;;;;2.90;1.40;;;23.40;48.60;;;;;;4944581;28;20451;-83
2022/06/01 12:39:41;;;;;;;3.43;2.10;;;22.90;50.80;;;;;;4960808;28;20539;-85
2022/06/01 12:42:19;;;;;;;4.40;1.80;;;22.90;51.30;;;;;;4947465;28;20489;-85
2022/06/01 12:44:51;;;;;;;3.30;2.00;;;23.70;50.90;;;;;;4947287;28;20491;-85
2022/06/01 12:47:28;;;;;;;2.70;1.90;;;23.70;51.40;;;;;;4950302;28;20466;-85
2022/06/01 12:49:54;;;;;;;4.20;1.70;;;23.80;50.60;;;;;;4942522;28;20435;-85
2022/06/01 12:52:26;;;;;;;2.00;1.77;;;23.60;50.30;;;;;;4944054;28;20992;-89
2022/06/01 12:54:57;;;;;;;2.00;1.77;;;23.30;49.40;;;;;;4944129;28;20791;-87
2022/06/01 12:57:37;;;;;;;2.90;1.70;;;23.40;50.70;;;;;;4941511;28;20648;-85
2022/06/01 13:00:25;;;;;;;1.93;1.47;;;23.40;51.10;;;;;;4943083;28;20456;-86
2022/06/01 13:02:51;;;;;;;1.80;1.70;;;;;;;;;;4956397;28;20542;-82
2022/06/01 13:05:35;;;;;;;4.17;1.80;;;23.40;52.00;;;;;;4939140;28;20948;-86
2022/06/01 13:08:03;;;;;;;2.40;1.63;;;23.80;51.00;;;;;;4933963;28;20468;-85
2022/06/01 13:10:32;;;;;;;6.10;1.87;;;23.90;50.10;;;;;;4954679;28;20447;-88
2022/06/01 13:13:11;;;;;;;8.90;2.40;;;23.90;50.50;;;;;;4941659;28;21041;-84
2022/06/01 13:15:38;;;;;;;4.20;1.73;;;23.60;50.10;;;;;;4937326;28;21018;-83
2022/06/01 13:18:11;;;;;;;2.63;1.60;;;23.60;48.30;;;;;;4937115;28;21297;-83
2022/06/01 13:20:42;;;;;;;2.70;1.73;;;23.80;50.30;;;;;;4941322;28;20450;-86
2022/06/01 13:23:49;;;;;;;2.37;1.70;;;23.90;50.50;;;;;;4953061;23;20508;-86
2022/06/01 13:26:31;;;;;;;4.77;1.63;;;24.10;51.40;;;;;;4918926;28;20463;-84
2022/06/01 13:29:08;;;;;;;8.10;2.03;;;24.20;48.70;;;;;;4934222;28;20527;-84
2022/06/01 13:31:35;;;;;;;3.80;1.37;;;23.70;48.30;;;;;;4936450;28;20946;-83
2022/06/01 13:34:01;;;;;;;6.80;2.90;;;23.60;48.70;;;;;;4938242;28;20870;-84
2022/06/01 13:36:35;;;;;;;3.50;1.80;;;23.50;47.10;;;;;;4931989;28;20439;-85
2022/06/01 13:39:09;;;;;;;9.20;2.50;;;23.60;47.80;;;;;;4936316;28;20483;-82
2022/06/01 13:41:43;;;;;;;2.27;1.30;;;23.80;49.80;;;;;;4944274;28;20571;-87
2022/06/01 13:44:09;;;;;;;4.17;2.13;;;;;;;;;;4937863;28;20466;-84
2022/06/01 13:46:40;;;;;;;1.77;1.40;;;23.50;47.00;;;;;;4936196;28;20436;-83
2022/06/01 13:49:11;;;;;;;1.40;1.27;;;23.30;46.80;;;;;;4934538;28;20442;-86
2022/06/01 13:52:03;;;;;;;3.40;1.93;;;23.30;47.40;;;;;;4955369;28;20443;-84
2022/06/01 13:54:33;;;;;;;5.23;1.60;;;22.80;47.80;;;;;;4939829;28;20555;-83
2022/06/01 13:57:20;;;;;;;4.13;1.60;;;21.40;47.30;;;;;;4944664;28;20470;-84
2022/06/01 13:59:52;;;;;;;6.63;1.50;;;22.90;49.40;;;;;;4941745;28;20444;-84
2022/06/01 14:02:32;;;;;;;1.70;1.60;;;23.30;48.70;;;;;;4943790;28;20546;-84
2022/06/01 14:05:14;;;;;;;4.83;1.30;;;23.30;49.20;;;;;;4940474;28;20454;-85
2022/06/01 14:07:50;;;;;;;9.50;1.80;;;23.60;48.50;;;;;;4937833;28;20496;-84
2022/06/01 14:10:16;;;;;;;2.77;1.63;;;;;;;;;;4944499;28;20423;-83
2022/06/01 14:12:44;;;;;;;3.20;1.40;;;23.50;49.20;;;;;;4944702;28;20458;-87
2022/06/01 14:15:12;;;;;;;1.77;1.67;;;23.50;49.00;;;;;;4942121;28;20455;-85
2022/06/01 14:17:43;;;;;;;3.27;1.43;;;23.60;48.10;;;;;;4947274;28;20963;-84